createdAt,value
2023-05-11T00:01:04.470Z,3.47
2023-05-11T00:03:32.486Z,4.37
2023-05-11T00:09:08.855Z,6.77
2023-05-11T00:11:36.253Z,5.57
2023-05-11T00:14:03.811Z,7.47
2023-05-11T00:16:31.107Z,5.90
2023-05-11T00:18:58.440Z,6.03
2023-05-11T00:21:25.410Z,4.70
2023-05-11T00:23:52.630Z,4.03
2023-05-11T00:26:22.192Z,6.40
2023-05-11T00:33:55.192Z,13.03
2023-05-11T00:36:22.887Z,9.80
2023-05-11T00:38:50.166Z,10.23
2023-05-11T00:41:17.456Z,12.23
2023-05-11T00:43:44.289Z,12.10
2023-05-11T00:46:11.436Z,10.17
2023-05-11T00:48:38.983Z,9.17
2023-05-11T00:58:37.490Z,8.07
2023-05-11T01:01:04.991Z,6.97
2023-05-11T01:03:33.097Z,9.20
2023-05-11T01:06:06.513Z,9.77
2023-05-11T01:08:41.936Z,8.20
2023-05-11T01:11:15.932Z,7.43
2023-05-11T01:13:50.908Z,8.77
2023-05-11T01:20:35.873Z,12.40
2023-05-11T01:23:23.665Z,10.90
2023-05-11T01:26:14.723Z,12.83
2023-05-11T01:29:08.446Z,20.47
2023-05-11T01:31:41.375Z,28.63
2023-05-11T01:34:13.260Z,110.07
2023-05-11T01:36:51.199Z,288.43
2023-05-11T01:44:28.215Z,440.13
2023-05-11T01:46:56.181Z,443.40
2023-05-11T01:49:23.536Z,560.37
2023-05-11T01:51:53.689Z,277.00
2023-05-11T01:54:22.197Z,318.60
2023-05-11T01:56:51.257Z,270.93
2023-05-11T01:59:19.072Z,397.73
2023-05-11T02:04:38.965Z,359.53
2023-05-11T02:07:07.756Z,339.20
2023-05-11T02:09:36.176Z,334.17
2023-05-11T02:12:04.989Z,229.00
2023-05-11T02:14:35.922Z,482.83
2023-05-11T02:17:04.710Z,207.63
2023-05-11T02:19:34.428Z,350.33
2023-05-11T02:27:05.629Z,328.40
2023-05-11T02:29:33.278Z,310.37
2023-05-11T02:32:06.930Z,374.53
2023-05-11T02:34:40.919Z,311.73
2023-05-11T02:37:13.443Z,357.10
2023-05-11T02:39:45.015Z,286.00
2023-05-11T02:42:15.495Z,331.80
2023-05-11T02:47:27.464Z,278.63
2023-05-11T02:49:57.780Z,492.80
2023-05-11T02:52:27.909Z,397.27
2023-05-11T02:54:56.958Z,356.37
2023-05-11T02:57:25.108Z,440.83
2023-05-11T02:59:52.576Z,393.20
2023-05-11T03:02:19.776Z,466.10
2023-05-11T03:09:51.939Z,631.43
2023-05-11T03:12:20.258Z,543.00
2023-05-11T03:14:48.934Z,542.57
2023-05-11T03:17:17.485Z,442.47
2023-05-11T03:19:45.027Z,530.10
2023-05-11T03:22:12.713Z,602.33
2023-05-11T03:24:40.181Z,594.37
2023-05-11T03:35:27.923Z,580.77
2023-05-11T03:37:57.397Z,377.70
2023-05-11T03:40:25.189Z,402.50
2023-05-11T03:42:55.073Z,466.70
2023-05-11T03:45:22.898Z,180.90
2023-05-11T03:47:51.188Z,373.93
2023-05-11T03:50:19.773Z,323.20
2023-05-11T03:52:49.054Z,318.43
2023-05-11T04:00:17.842Z,286.63
2023-05-11T04:02:45.344Z,178.97
2023-05-11T04:05:13.940Z,270.43
2023-05-11T04:07:41.162Z,242.10
2023-05-11T04:10:09.148Z,226.17
2023-05-11T04:12:36.310Z,271.57
2023-05-11T04:15:04.140Z,255.53
2023-05-11T04:22:32.190Z,270.30
2023-05-11T04:24:59.693Z,204.60
2023-05-11T04:27:26.976Z,154.70
2023-05-11T04:29:54.955Z,255.20
2023-05-11T04:32:22.113Z,108.70
2023-05-11T04:34:49.158Z,212.33
2023-05-11T04:37:16.673Z,240.77
2023-05-11T04:39:44.763Z,266.93
2023-05-11T04:47:12.349Z,212.57
2023-05-11T04:49:39.804Z,249.83
2023-05-11T04:52:07.045Z,250.27
2023-05-11T04:54:36.584Z,225.63
2023-05-11T04:57:04.069Z,338.37
2023-05-11T04:59:31.348Z,315.17
2023-05-11T05:01:59.227Z,239.17
2023-05-11T05:04:27.588Z,284.40
2023-05-11T05:11:59.604Z,461.60
2023-05-11T05:14:27.194Z,402.40
2023-05-11T05:16:54.456Z,394.07
2023-05-11T05:19:22.096Z,394.13
2023-05-11T05:21:51.713Z,401.53
2023-05-11T05:24:18.856Z,461.70
2023-05-11T05:26:46.256Z,589.30
2023-05-11T05:31:59.435Z,362.70
2023-05-11T05:34:27.131Z,625.53
2023-05-11T05:36:54.588Z,561.57
2023-05-11T05:39:21.644Z,253.93
2023-05-11T05:41:49.657Z,728.23
2023-05-11T05:44:17.002Z,687.03
2023-05-11T05:46:45.862Z,423.63
2023-05-11T05:52:13.707Z,160.83
2023-05-11T05:54:41.500Z,176.77
2023-05-11T05:57:08.998Z,275.83
2023-05-11T05:59:36.995Z,63.33
2023-05-11T06:02:05.833Z,193.03
2023-05-11T06:04:33.311Z,130.00
2023-05-11T06:07:00.564Z,325.77
2023-05-11T06:09:28.854Z,166.97
2023-05-11T06:17:00.359Z,494.83
2023-05-11T06:19:27.500Z,221.87
2023-05-11T06:21:54.619Z,339.03
2023-05-11T06:24:22.038Z,320.30
2023-05-11T06:26:49.435Z,345.70
2023-05-11T06:29:17.110Z,372.57
2023-05-11T06:31:44.554Z,469.47
2023-05-11T06:37:19.768Z,208.57
2023-05-11T06:39:46.998Z,438.43
2023-05-11T06:42:14.581Z,399.67
2023-05-11T06:44:45.313Z,448.67
2023-05-11T06:47:12.375Z,165.03
2023-05-11T06:49:39.611Z,293.87
2023-05-11T06:52:07.142Z,417.20
2023-05-11T06:59:59.284Z,155.67
2023-05-11T07:02:26.444Z,52.90
2023-05-11T07:04:53.668Z,156.67
2023-05-11T07:07:22.659Z,106.13
2023-05-11T07:09:50.436Z,50.97
2023-05-11T07:12:18.192Z,51.20
2023-05-11T07:14:45.953Z,37.47
2023-05-11T07:19:54.809Z,46.87
2023-05-11T07:22:22.225Z,40.53
2023-05-11T07:24:50.015Z,32.60
2023-05-11T07:27:17.271Z,34.03
2023-05-11T07:29:45.617Z,33.27
2023-05-11T07:32:13.659Z,41.80
2023-05-11T07:34:41.398Z,37.10
2023-05-11T07:39:53.770Z,47.43
2023-05-11T07:42:20.966Z,34.60
2023-05-11T07:44:48.387Z,33.00
2023-05-11T07:47:17.089Z,33.87
2023-05-11T07:49:47.052Z,25.97
2023-05-11T07:52:14.243Z,28.63
2023-05-11T07:54:41.306Z,25.20
2023-05-11T07:57:10.744Z,25.43
2023-05-11T08:04:42.782Z,23.83
2023-05-11T08:07:10.185Z,25.60
2023-05-11T08:09:37.498Z,26.57
2023-05-11T08:12:07.322Z,24.97
2023-05-11T08:14:35.403Z,30.57
2023-05-11T08:17:03.299Z,25.37
2023-05-11T08:19:30.527Z,26.27
2023-05-11T08:29:45.899Z,32.27
2023-05-11T08:32:12.944Z,30.00
2023-05-11T08:34:40.696Z,28.80
2023-05-11T08:37:07.977Z,28.87
2023-05-11T08:39:46.787Z,27.17
2023-05-11T08:42:16.418Z,24.63
2023-05-11T08:44:46.405Z,27.67
2023-05-11T08:49:57.897Z,23.17
2023-05-11T08:52:27.213Z,26.20
2023-05-11T08:54:54.860Z,23.90
2023-05-11T08:57:23.782Z,24.30
2023-05-11T08:59:52.222Z,25.97
2023-05-11T09:02:20.395Z,25.27
2023-05-11T09:04:48.914Z,24.23
2023-05-11T09:13:55.114Z,22.93
2023-05-11T09:16:36.244Z,24.47
2023-05-11T09:19:04.895Z,22.50
2023-05-11T09:21:32.623Z,19.10
2023-05-11T09:24:00.801Z,19.40
2023-05-11T09:26:29.188Z,24.13
2023-05-11T09:31:36.785Z,17.97
2023-05-11T09:39:16.597Z,24.43
2023-05-11T09:41:44.755Z,21.30
2023-05-11T09:44:14.388Z,23.47
2023-05-11T09:46:43.245Z,18.53
2023-05-11T09:49:11.384Z,15.67
2023-05-11T09:51:40.290Z,23.17
2023-05-11T09:54:17.660Z,18.07
2023-05-11T09:56:47.829Z,15.27
2023-05-11T10:04:30.192Z,15.80
2023-05-11T10:06:58.245Z,12.27
2023-05-11T10:09:28.176Z,11.70
2023-05-11T10:11:56.505Z,11.40
2023-05-11T10:14:27.415Z,12.40
2023-05-11T10:16:57.946Z,10.23
2023-05-11T10:19:28.754Z,11.17
2023-05-11T10:27:04.417Z,12.17
2023-05-11T10:29:36.141Z,14.73
2023-05-11T10:32:05.031Z,11.67
2023-05-11T10:34:33.669Z,10.53
2023-05-11T10:37:02.059Z,13.13
2023-05-11T10:39:32.270Z,10.97
2023-05-11T10:42:18.925Z,10.00
2023-05-11T10:48:12.294Z,10.53
2023-05-11T10:50:51.431Z,9.77
2023-05-11T10:53:45.318Z,9.53
2023-05-11T10:56:34.826Z,9.70
2023-05-11T10:59:30.791Z,8.77
2023-05-11T11:02:02.572Z,13.77
2023-05-11T11:04:48.434Z,9.70
2023-05-11T11:12:25.243Z,8.83
2023-05-11T11:14:58.052Z,9.63
2023-05-11T11:17:29.114Z,9.23
2023-05-11T11:20:01.753Z,10.17
2023-05-11T11:22:47.685Z,10.30
2023-05-11T11:25:39.989Z,9.13
2023-05-11T11:28:14.264Z,9.40
2023-05-11T11:35:51.250Z,8.93
2023-05-11T11:38:23.492Z,8.90
2023-05-11T11:40:55.092Z,8.73
2023-05-11T11:43:25.880Z,9.90
2023-05-11T11:45:56.388Z,12.57
2023-05-11T11:48:35.885Z,9.03
2023-05-11T11:51:07.836Z,8.40
2023-05-11T11:59:04.719Z,8.70
2023-05-11T12:01:38.051Z,7.30
2023-05-11T12:04:58.654Z,7.03
2023-05-11T12:07:31.792Z,8.30
2023-05-11T12:10:04.251Z,10.83
2023-05-11T12:12:32.549Z,8.23
2023-05-11T12:15:02.998Z,8.23
2023-05-11T12:22:37.916Z,11.27
2023-05-11T12:25:07.377Z,10.40
2023-05-11T12:27:34.647Z,10.03
2023-05-11T12:30:02.496Z,9.67
2023-05-11T12:32:35.688Z,8.87
2023-05-11T12:35:05.434Z,10.00
2023-05-11T12:37:35.822Z,8.83
2023-05-11T12:40:05.541Z,8.93
2023-05-11T12:50:20.621Z,9.50
2023-05-11T12:52:53.331Z,13.90
2023-05-11T12:55:30.924Z,9.73
2023-05-11T12:58:11.053Z,10.27
2023-05-11T13:00:50.224Z,13.87
2023-05-11T13:03:23.846Z,12.43
2023-05-11T13:06:04.260Z,9.10
2023-05-11T13:16:00.888Z,13.37
2023-05-11T13:18:29.765Z,12.00
2023-05-11T13:21:09.791Z,9.67
2023-05-11T13:23:38.268Z,13.30
2023-05-11T13:26:07.787Z,12.17
2023-05-11T13:28:39.259Z,11.37
2023-05-11T13:31:11.235Z,13.27
2023-05-11T13:36:21.089Z,16.13
2023-05-11T13:38:52.249Z,11.17
2023-05-11T13:41:20.578Z,12.57
2023-05-11T13:43:50.320Z,13.93
2023-05-11T13:46:18.925Z,12.47
2023-05-11T13:48:47.006Z,12.63
2023-05-11T13:51:13.884Z,12.57
2023-05-11T13:58:47.085Z,11.53
2023-05-11T14:01:14.285Z,15.03
2023-05-11T14:03:42.656Z,12.57
2023-05-11T14:06:12.214Z,15.27
2023-05-11T14:08:39.323Z,14.90
2023-05-11T14:11:06.605Z,14.93
2023-05-11T14:13:34.116Z,14.40
2023-05-11T14:18:41.954Z,18.73
2023-05-11T14:21:09.057Z,16.80
2023-05-11T14:23:39.857Z,18.83
2023-05-11T14:26:09.840Z,21.10
2023-05-11T14:28:37.510Z,18.97
2023-05-11T14:31:04.840Z,10.47
2023-05-11T14:33:33.565Z,12.00
2023-05-11T14:43:53.018Z,11.40
2023-05-11T14:46:21.045Z,17.40
2023-05-11T14:48:48.957Z,17.00
2023-05-11T14:51:18.684Z,16.13
2023-05-11T14:53:45.818Z,12.57
2023-05-11T14:56:15.445Z,10.80
2023-05-11T14:58:42.957Z,11.20
2023-05-11T15:04:21.723Z,11.57
2023-05-11T15:06:49.065Z,9.93
2023-05-11T15:09:17.136Z,9.87
2023-05-11T15:11:45.838Z,7.87
2023-05-11T15:14:13.011Z,7.83
2023-05-11T15:16:40.640Z,9.83
2023-05-11T15:19:09.740Z,11.73
2023-05-11T15:26:32.279Z,7.60
2023-05-11T15:29:00.232Z,8.70
2023-05-11T15:31:27.606Z,6.13
2023-05-11T15:33:55.215Z,5.90
2023-05-11T15:36:23.349Z,9.20
2023-05-11T15:38:51.054Z,9.23
2023-05-11T15:41:18.716Z,7.73
2023-05-11T15:47:13.617Z,7.80
2023-05-11T15:49:41.434Z,7.13
2023-05-11T15:52:08.580Z,6.13
2023-05-11T15:54:37.335Z,7.20
2023-05-11T15:57:07.981Z,12.57
2023-05-11T15:59:35.767Z,6.63
2023-05-11T16:02:03.402Z,7.60
2023-05-11T16:07:12.887Z,4.67
2023-05-11T16:09:40.149Z,4.33
2023-05-11T16:12:08.758Z,5.93
2023-05-11T16:14:36.250Z,5.20
2023-05-11T16:17:03.854Z,9.23
2023-05-11T16:19:32.279Z,5.00
2023-05-11T16:21:59.790Z,4.03
2023-05-11T16:28:55.874Z,5.50
2023-05-11T16:31:23.948Z,5.53
2023-05-11T16:33:51.657Z,6.67
2023-05-11T16:36:19.640Z,5.10
2023-05-11T16:38:48.534Z,5.50
2023-05-11T16:41:19.012Z,6.13
2023-05-11T16:43:47.388Z,6.50
2023-05-11T16:46:16.532Z,8.07
2023-05-11T16:53:48.723Z,10.10
2023-05-11T16:56:16.889Z,5.80
2023-05-11T16:58:44.445Z,6.87
2023-05-11T17:01:12.341Z,5.07
2023-05-11T17:03:39.680Z,8.87
2023-05-11T17:06:09.535Z,5.27
2023-05-11T17:08:37.005Z,6.17
2023-05-11T17:15:21.723Z,5.33
2023-05-11T17:17:51.700Z,6.30
2023-05-11T17:20:20.950Z,6.87
2023-05-11T17:22:48.717Z,8.40
2023-05-11T17:25:22.962Z,5.30
2023-05-11T17:27:50.515Z,7.97
2023-05-11T17:30:18.955Z,12.87
2023-05-11T17:36:01.916Z,9.67
2023-05-11T17:38:29.178Z,15.07
2023-05-11T17:40:58.969Z,11.13
2023-05-11T17:43:26.306Z,8.83
2023-05-11T17:45:53.287Z,8.63
2023-05-11T17:48:21.040Z,10.83
2023-05-11T17:50:49.862Z,13.57
2023-05-11T17:56:58.581Z,16.73
2023-05-11T17:59:26.638Z,17.57
2023-05-11T18:01:54.821Z,13.63
2023-05-11T18:04:22.690Z,24.37
2023-05-11T18:06:50.825Z,107.67
2023-05-11T18:09:19.300Z,223.57
2023-05-11T18:11:47.552Z,15.07
2023-05-11T18:14:16.073Z,13.63
2023-05-11T18:21:43.598Z,9.33
2023-05-11T18:24:17.194Z,10.67
2023-05-11T18:26:45.036Z,9.77
2023-05-11T18:29:12.369Z,7.80
2023-05-11T18:31:39.430Z,6.77
2023-05-11T18:34:12.046Z,7.77
2023-05-11T18:36:39.473Z,7.83
2023-05-11T18:41:48.223Z,8.53
2023-05-11T18:44:18.539Z,14.37
2023-05-11T18:46:46.078Z,11.20
2023-05-11T18:49:13.658Z,26.73
2023-05-11T18:51:44.008Z,9.97
2023-05-11T18:54:11.289Z,11.03
2023-05-11T18:56:38.684Z,10.40
2023-05-11T19:04:11.681Z,14.50
2023-05-11T19:06:38.991Z,14.03
2023-05-11T19:09:06.563Z,16.27
2023-05-11T19:11:35.001Z,16.90
2023-05-11T19:14:04.152Z,20.70
2023-05-11T19:16:36.472Z,48.07
2023-05-11T19:19:04.010Z,19.87
2023-05-11T19:24:28.350Z,53.30
2023-05-11T19:27:06.648Z,107.90
2023-05-11T19:29:37.836Z,208.93
2023-05-11T19:32:06.545Z,180.53
2023-05-11T19:34:36.307Z,157.33
2023-05-11T19:37:09.068Z,240.40
2023-05-11T19:39:39.840Z,389.50
2023-05-11T19:47:13.705Z,219.90
2023-05-11T19:49:43.010Z,317.63
2023-05-11T19:52:13.011Z,176.20
2023-05-11T19:54:41.231Z,163.57
2023-05-11T19:57:08.972Z,79.03
2023-05-11T19:59:38.363Z,154.43
2023-05-11T20:02:06.537Z,115.57
2023-05-11T20:07:27.018Z,485.63
2023-05-11T20:09:57.739Z,426.03
2023-05-11T20:12:25.109Z,453.30
2023-05-11T20:14:53.128Z,365.20
2023-05-11T20:17:21.450Z,305.90
2023-05-11T20:19:49.397Z,127.60
2023-05-11T20:22:21.042Z,343.90
2023-05-11T20:28:01.493Z,357.50
2023-05-11T20:30:29.246Z,231.93
2023-05-11T20:35:28.321Z,492.13
2023-05-11T20:37:55.281Z,64.30
2023-05-11T20:40:24.782Z,614.50
2023-05-11T20:42:52.221Z,666.43
2023-05-11T20:53:22.111Z,182.97
2023-05-11T20:55:50.371Z,415.37
2023-05-11T20:58:18.284Z,424.63
2023-05-11T21:00:46.208Z,457.70
2023-05-11T21:03:13.611Z,412.80
2023-05-11T21:05:40.855Z,659.90
2023-05-11T21:08:08.200Z,491.57
2023-05-11T21:10:36.473Z,374.23
2023-05-11T21:18:08.490Z,258.00
2023-05-11T21:20:37.151Z,314.50
2023-05-11T21:23:04.948Z,522.50
2023-05-11T21:25:32.810Z,290.00
2023-05-11T21:28:01.405Z,292.47
2023-05-11T21:30:29.243Z,450.07
2023-05-11T21:32:57.776Z,509.83
2023-05-11T21:38:06.336Z,217.00
2023-05-11T21:40:34.066Z,432.03
2023-05-11T21:43:02.291Z,498.73
2023-05-11T21:45:29.859Z,245.07
2023-05-11T21:47:58.870Z,446.47
2023-05-11T21:50:26.304Z,452.93
2023-05-11T21:52:54.469Z,270.33
2023-05-11T22:00:27.313Z,354.60
2023-05-11T22:02:55.439Z,216.47
2023-05-11T22:05:23.643Z,417.60
2023-05-11T22:07:53.905Z,168.23
2023-05-11T22:10:24.049Z,448.53
2023-05-11T22:12:51.823Z,402.63
2023-05-11T22:15:18.798Z,534.83
2023-05-11T22:17:47.995Z,449.40
2023-05-11T22:25:19.384Z,253.77
2023-05-11T22:27:47.487Z,64.77
2023-05-11T22:30:17.929Z,97.53
2023-05-11T22:32:45.630Z,160.57
2023-05-11T22:35:12.812Z,412.50
2023-05-11T22:37:40.232Z,406.83
2023-05-11T22:40:08.548Z,373.30
2023-05-11T22:47:40.337Z,93.93
2023-05-11T22:50:11.569Z,24.23
2023-05-11T22:52:39.495Z,11.50
2023-05-11T22:55:08.983Z,35.77
2023-05-11T22:57:35.952Z,11.03
2023-05-11T23:00:03.848Z,19.50
2023-05-11T23:02:32.837Z,9.43
2023-05-11T23:05:02.241Z,10.97
2023-05-11T23:12:33.427Z,11.93
2023-05-11T23:15:01.267Z,8.00
2023-05-11T23:17:28.714Z,11.70
2023-05-11T23:19:56.983Z,8.93
2023-05-11T23:22:24.782Z,9.77
2023-05-11T23:24:52.708Z,17.20
2023-05-11T23:27:20.146Z,9.83
2023-05-11T23:29:50.048Z,6.23
2023-05-11T23:37:24.094Z,5.10
2023-05-11T23:39:51.355Z,4.53
2023-05-11T23:42:18.955Z,4.13
2023-05-11T23:44:46.227Z,8.67
2023-05-11T23:47:14.026Z,5.37
2023-05-11T23:49:41.045Z,5.87
2023-05-11T23:52:08.992Z,4.27
2023-05-11T23:54:37.998Z,5.63
